createdAt,value
2023-01-27T00:00:30.784Z,24.88
2023-01-27T00:02:59.131Z,16.63
2023-01-27T00:05:27.790Z,17.20
2023-01-27T00:08:00.413Z,14.75
2023-01-27T00:10:29.058Z,21.95
2023-01-27T00:13:15.068Z,18.08
2023-01-27T00:15:43.457Z,14.45
2023-01-27T00:18:12.234Z,14.02
2023-01-27T00:20:58.501Z,15.70
2023-01-27T00:23:59.425Z,17.02
2023-01-27T00:26:27.769Z,13.90
2023-01-27T00:28:56.092Z,15.68
2023-01-27T00:31:42.267Z,12.65
2023-01-27T00:34:10.619Z,15.82
2023-01-27T00:36:39.699Z,16.85
2023-01-27T00:39:11.648Z,15.90
2023-01-27T00:41:39.987Z,16.45
2023-01-27T00:44:15.109Z,15.10
2023-01-27T00:46:44.024Z,14.23
2023-01-27T00:49:21.381Z,14.57
2023-01-27T00:51:49.808Z,16.02
2023-01-27T00:54:19.567Z,14.85
2023-01-27T00:56:48.697Z,14.25
2023-01-27T00:59:17.015Z,15.40
2023-01-27T01:05:13.687Z,17.20
2023-01-27T01:07:41.936Z,14.82
2023-01-27T01:10:12.751Z,15.63
2023-01-27T01:12:41.245Z,13.52
2023-01-27T01:15:10.693Z,14.90
2023-01-27T01:17:38.992Z,14.68
2023-01-27T01:20:07.797Z,16.52
2023-01-27T01:22:36.290Z,14.02
2023-01-27T01:25:04.759Z,13.95
2023-01-27T01:27:34.447Z,16.02
2023-01-27T01:30:02.788Z,15.10
2023-01-27T01:32:31.080Z,15.65
2023-01-27T01:34:59.360Z,13.80
2023-01-27T01:37:27.689Z,13.52
2023-01-27T01:39:55.995Z,16.90
2023-01-27T01:42:24.332Z,17.90
2023-01-27T01:45:14.014Z,16.20
2023-01-27T01:47:42.321Z,15.90
2023-01-27T01:50:12.075Z,17.08
2023-01-27T01:52:40.492Z,14.35
2023-01-27T01:55:09.646Z,14.88
2023-01-27T01:57:40.937Z,15.38
2023-01-27T02:00:11.947Z,16.55
2023-01-27T02:02:41.099Z,22.55
2023-01-27T02:05:11.455Z,17.48
2023-01-27T02:07:42.274Z,18.88
2023-01-27T02:10:11.925Z,19.92
2023-01-27T02:12:40.393Z,18.98
2023-01-27T02:15:09.778Z,19.92
2023-01-27T02:17:39.499Z,17.90
2023-01-27T02:20:11.791Z,19.30
2023-01-27T02:22:41.946Z,19.88
2023-01-27T02:25:13.582Z,21.15
2023-01-27T02:27:43.713Z,19.20
2023-01-27T02:30:12.731Z,21.90
2023-01-27T02:32:41.020Z,21.45
2023-01-27T02:35:13.078Z,20.35
2023-01-27T02:37:42.223Z,18.92
2023-01-27T02:40:11.528Z,21.85
2023-01-27T02:42:39.830Z,19.63
2023-01-27T02:45:10.250Z,23.02
2023-01-27T02:47:38.595Z,20.88
2023-01-27T02:50:07.320Z,19.15
2023-01-27T02:52:35.652Z,17.55
2023-01-27T02:55:03.949Z,19.38
2023-01-27T02:57:32.287Z,17.15
2023-01-27T03:00:02.566Z,15.98
2023-01-27T03:02:32.241Z,15.95
2023-01-27T03:05:00.972Z,17.63
2023-01-27T03:07:29.292Z,21.52
2023-01-27T03:09:57.561Z,17.17
2023-01-27T03:12:25.867Z,15.50
2023-01-27T03:15:12.510Z,12.77
2023-01-27T03:18:00.327Z,13.57
2023-01-27T03:20:28.643Z,13.55
2023-01-27T03:22:56.918Z,10.75
2023-01-27T03:25:25.234Z,12.98
2023-01-27T03:27:53.518Z,11.55
2023-01-27T03:30:21.927Z,10.25
2023-01-27T03:32:51.575Z,10.90
2023-01-27T03:35:19.872Z,9.98
2023-01-27T03:38:05.996Z,9.25
2023-01-27T03:40:52.032Z,8.95
2023-01-27T03:43:38.237Z,12.93
2023-01-27T03:46:22.372Z,10.70
2023-01-27T03:48:53.631Z,13.27
2023-01-27T03:51:22.618Z,12.85
2023-01-27T03:53:51.035Z,13.93
2023-01-27T03:56:19.902Z,13.52
2023-01-27T03:58:49.823Z,12.77
2023-01-27T04:01:18.999Z,12.30
2023-01-27T04:04:05.023Z,12.38
2023-01-27T04:06:54.433Z,13.38
2023-01-27T04:09:24.024Z,11.65
2023-01-27T04:11:59.908Z,12.73
2023-01-27T04:14:29.539Z,10.73
2023-01-27T04:16:59.226Z,14.75
2023-01-27T04:19:27.525Z,12.55
2023-01-27T04:21:57.591Z,11.25
2023-01-27T04:24:26.179Z,11.88
2023-01-27T04:26:56.247Z,10.68
2023-01-27T04:29:25.247Z,11.43
2023-01-27T04:31:53.622Z,10.48
2023-01-27T04:34:22.003Z,9.02
2023-01-27T04:36:50.321Z,11.57
2023-01-27T04:39:20.239Z,10.20
2023-01-27T04:41:49.148Z,9.65
2023-01-27T04:44:20.169Z,9.98
2023-01-27T04:46:48.514Z,12.20
2023-01-27T04:49:17.074Z,10.13
2023-01-27T04:51:46.398Z,10.40
2023-01-27T04:54:15.633Z,10.85
2023-01-27T04:56:55.530Z,7.88
2023-01-27T04:59:23.955Z,9.55
2023-01-27T05:01:52.509Z,9.27
2023-01-27T05:04:20.867Z,8.38
2023-01-27T05:06:49.699Z,11.48
2023-01-27T05:09:17.999Z,12.02
2023-01-27T05:11:47.675Z,10.95
2023-01-27T05:14:15.973Z,12.07
2023-01-27T05:16:44.319Z,12.20
2023-01-27T05:19:12.945Z,10.48
2023-01-27T05:21:41.238Z,9.27
2023-01-27T05:24:09.633Z,9.00
2023-01-27T05:26:38.059Z,10.50
2023-01-27T05:29:07.674Z,10.93
2023-01-27T05:31:36.048Z,9.85
2023-01-27T05:34:04.570Z,8.35
2023-01-27T05:36:33.092Z,9.50
2023-01-27T05:39:01.592Z,13.02
2023-01-27T05:41:40.277Z,13.15
2023-01-27T05:44:11.741Z,12.52
2023-01-27T05:46:40.867Z,9.82
2023-01-27T05:49:09.488Z,12.60
2023-01-27T05:51:39.683Z,10.43
2023-01-27T05:54:08.209Z,10.43
2023-01-27T05:56:36.692Z,9.80
2023-01-27T05:59:05.185Z,10.35
2023-01-27T06:01:37.361Z,9.43
2023-01-27T06:04:05.907Z,9.77
2023-01-27T06:06:35.225Z,8.80
2023-01-27T06:09:04.421Z,14.70
2023-01-27T06:11:32.683Z,9.05
2023-01-27T06:14:00.929Z,10.10
2023-01-27T06:16:29.214Z,9.32
2023-01-27T06:18:58.840Z,10.63
2023-01-27T06:21:27.108Z,10.48
2023-01-27T06:23:56.205Z,12.38
2023-01-27T06:26:24.491Z,9.90
2023-01-27T06:28:52.727Z,10.98
2023-01-27T06:31:22.441Z,11.00
2023-01-27T06:33:51.047Z,10.40
2023-01-27T06:36:21.756Z,11.82
2023-01-27T06:38:50.283Z,10.23
2023-01-27T06:41:19.601Z,12.02
2023-01-27T06:43:47.920Z,11.48
2023-01-27T06:46:16.269Z,10.15
2023-01-27T06:48:44.589Z,15.13
2023-01-27T06:51:14.155Z,11.57
2023-01-27T06:53:43.870Z,12.52
2023-01-27T06:56:18.192Z,11.13
2023-01-27T06:58:46.758Z,11.82
2023-01-27T07:01:15.173Z,9.82
2023-01-27T07:03:44.881Z,12.68
2023-01-27T07:06:15.066Z,12.82
2023-01-27T07:08:46.979Z,10.30
2023-01-27T07:11:15.325Z,11.52
2023-01-27T07:13:43.726Z,11.43
2023-01-27T07:16:12.028Z,10.38
2023-01-27T07:18:40.337Z,12.10
2023-01-27T07:21:08.904Z,14.57
2023-01-27T07:23:37.271Z,12.80
2023-01-27T07:26:23.157Z,12.95
2023-01-27T07:28:53.167Z,11.07
2023-01-27T07:31:21.523Z,13.65
2023-01-27T07:33:49.980Z,12.45
2023-01-27T07:36:18.249Z,12.20
2023-01-27T07:38:46.875Z,14.40
2023-01-27T07:41:19.507Z,13.02
2023-01-27T07:43:47.800Z,11.88
2023-01-27T07:46:16.234Z,12.43
2023-01-27T07:48:44.507Z,11.90
2023-01-27T07:51:13.953Z,11.52
2023-01-27T07:53:42.260Z,14.27
2023-01-27T07:56:11.940Z,11.13
2023-01-27T07:58:41.770Z,13.50
2023-01-27T08:01:10.819Z,12.15
2023-01-27T08:03:39.392Z,11.95
2023-01-27T08:06:08.045Z,11.88
2023-01-27T08:08:38.100Z,13.02
2023-01-27T08:11:10.243Z,9.75
2023-01-27T08:13:38.916Z,10.73
2023-01-27T08:16:09.599Z,11.43
2023-01-27T08:18:37.939Z,10.98
2023-01-27T08:21:07.939Z,9.45
2023-01-27T08:23:36.533Z,26.58
2023-01-27T08:26:05.878Z,14.45
2023-01-27T08:28:35.162Z,10.95
2023-01-27T08:31:06.938Z,12.45
2023-01-27T08:33:36.957Z,12.07
2023-01-27T08:36:06.069Z,12.18
2023-01-27T08:38:35.508Z,11.18
2023-01-27T08:41:05.168Z,10.80
2023-01-27T08:43:33.475Z,10.07
2023-01-27T08:46:05.389Z,9.32
2023-01-27T08:48:34.094Z,13.07
2023-01-27T08:51:04.526Z,10.02
2023-01-27T08:53:32.815Z,10.07
2023-01-27T08:56:04.711Z,9.63
2023-01-27T08:58:33.370Z,12.07
2023-01-27T09:01:03.281Z,11.52
2023-01-27T09:03:31.630Z,11.18
2023-01-27T09:06:00.150Z,10.52
2023-01-27T09:08:35.666Z,9.00
2023-01-27T09:11:09.508Z,10.20
2023-01-27T09:16:06.565Z,11.02
2023-01-27T09:18:35.262Z,11.38
2023-01-27T09:21:05.299Z,13.57
2023-01-27T09:23:37.697Z,14.60
2023-01-27T09:26:06.155Z,12.23
2023-01-27T09:28:34.403Z,9.80
2023-01-27T09:31:02.776Z,7.65
2023-01-27T09:33:35.147Z,8.18
2023-01-27T09:36:05.274Z,7.18
2023-01-27T09:38:36.459Z,8.63
2023-01-27T09:41:14.142Z,10.23
2023-01-27T09:43:52.325Z,6.90
2023-01-27T09:46:31.003Z,9.82
2023-01-27T09:49:09.534Z,7.75
2023-01-27T09:51:45.603Z,7.38
2023-01-27T09:54:32.574Z,6.95
2023-01-27T09:57:09.933Z,6.72
2023-01-27T09:59:50.412Z,7.80
2023-01-27T10:02:26.304Z,6.53
2023-01-27T10:05:03.853Z,8.45
2023-01-27T10:07:49.765Z,9.20
2023-01-27T10:10:23.374Z,7.60
2023-01-27T10:13:00.450Z,5.90
2023-01-27T10:15:34.401Z,7.60
2023-01-27T10:18:04.645Z,7.93
2023-01-27T10:20:37.835Z,8.07
2023-01-27T10:23:11.335Z,4.88
2023-01-27T10:25:45.241Z,8.20
2023-01-27T10:30:46.325Z,6.57
2023-01-27T10:33:18.885Z,8.53
2023-01-27T10:35:52.520Z,7.05
2023-01-27T10:38:27.457Z,7.85
2023-01-27T10:41:00.387Z,7.72
2023-01-27T10:43:34.163Z,9.03
2023-01-27T10:46:08.161Z,8.52
2023-01-27T10:48:38.817Z,9.38
2023-01-27T10:51:10.910Z,8.82
2023-01-27T10:53:42.309Z,10.00
2023-01-27T10:56:13.975Z,9.18
2023-01-27T10:58:46.690Z,6.82
2023-01-27T11:01:21.495Z,8.68
2023-01-27T11:03:53.259Z,10.88
2023-01-27T11:06:25.658Z,8.02
2023-01-27T11:08:55.452Z,7.68
2023-01-27T11:11:44.134Z,8.88
2023-01-27T11:14:14.466Z,8.48
2023-01-27T11:16:45.905Z,9.73
2023-01-27T11:19:18.178Z,7.63
2023-01-27T11:21:55.436Z,8.10
2023-01-27T11:24:34.203Z,11.63
2023-01-27T11:27:05.783Z,8.00
2023-01-27T11:29:37.888Z,7.55
2023-01-27T11:32:18.366Z,8.57
2023-01-27T11:34:48.398Z,9.77
2023-01-27T11:37:21.344Z,10.35
2023-01-27T11:39:49.949Z,5.80
2023-01-27T11:42:18.412Z,11.88
2023-01-27T11:44:49.590Z,12.68
2023-01-27T11:47:25.889Z,10.13
2023-01-27T11:49:57.600Z,17.98
2023-01-27T11:52:31.066Z,17.05
2023-01-27T11:55:02.845Z,8.52
2023-01-27T11:57:31.377Z,6.63
2023-01-27T12:00:05.119Z,7.95
2023-01-27T12:05:04.999Z,10.52
2023-01-27T12:07:39.187Z,9.70
2023-01-27T12:10:22.705Z,7.88
2023-01-27T12:12:51.031Z,5.63
2023-01-27T12:15:19.973Z,7.20
2023-01-27T12:17:49.679Z,6.25
2023-01-27T12:20:26.447Z,5.15
2023-01-27T12:22:56.093Z,6.88
2023-01-27T12:25:28.192Z,7.20
2023-01-27T12:27:58.525Z,8.40
2023-01-27T12:30:28.757Z,5.50
2023-01-27T12:32:58.448Z,6.63
2023-01-27T12:35:29.895Z,12.88
2023-01-27T12:37:59.695Z,16.17
2023-01-27T12:40:29.060Z,12.70
2023-01-27T12:43:07.681Z,7.22
2023-01-27T12:45:39.707Z,14.20
2023-01-27T12:48:18.259Z,9.48
2023-01-27T12:50:56.752Z,9.57
2023-01-27T12:53:27.812Z,9.68
2023-01-27T12:55:58.927Z,7.38
2023-01-27T12:58:32.313Z,5.50
2023-01-27T13:01:01.956Z,10.95
2023-01-27T13:03:30.896Z,7.80
2023-01-27T13:06:01.416Z,8.55
2023-01-27T13:08:30.458Z,7.00
2023-01-27T13:11:02.164Z,5.82
2023-01-27T13:13:31.390Z,6.35
2023-01-27T13:16:03.825Z,6.68
2023-01-27T13:18:45.770Z,5.72
2023-01-27T13:21:20.902Z,5.28
2023-01-27T13:23:55.174Z,6.75
2023-01-27T13:26:28.663Z,6.20
2023-01-27T13:29:02.105Z,8.25
2023-01-27T13:31:44.925Z,11.35
2023-01-27T13:34:17.940Z,21.48
2023-01-27T13:36:51.575Z,8.48
2023-01-27T13:39:28.814Z,10.77
2023-01-27T13:42:12.389Z,6.57
2023-01-27T13:44:42.398Z,5.18
2023-01-27T13:47:14.513Z,7.10
2023-01-27T13:49:44.647Z,8.52
2023-01-27T13:52:14.319Z,7.10
2023-01-27T13:54:42.672Z,10.38
2023-01-27T13:57:22.195Z,12.52
2023-01-27T13:59:56.458Z,9.43
2023-01-27T14:02:41.035Z,6.38
2023-01-27T14:05:22.418Z,7.30
2023-01-27T14:07:57.546Z,9.57
2023-01-27T14:10:28.035Z,6.25
2023-01-27T14:13:09.482Z,9.23
2023-01-27T14:15:41.029Z,8.63
2023-01-27T14:18:17.467Z,6.57
2023-01-27T14:20:50.704Z,4.70
2023-01-27T14:23:37.339Z,6.05
2023-01-27T14:26:11.536Z,5.68
2023-01-27T14:28:46.217Z,6.00
2023-01-27T14:31:16.403Z,4.90
2023-01-27T14:33:51.211Z,4.82
2023-01-27T14:36:22.589Z,36.78
2023-01-27T14:38:57.872Z,27.67
2023-01-27T14:41:28.257Z,8.60
2023-01-27T14:44:01.289Z,9.82
2023-01-27T14:46:39.456Z,5.65
2023-01-27T14:49:11.187Z,8.63
2023-01-27T14:51:43.036Z,10.32
2023-01-27T14:54:25.980Z,8.63
2023-01-27T14:57:05.780Z,12.70
2023-01-27T14:59:39.533Z,13.63
2023-01-27T15:02:14.559Z,15.32
2023-01-27T15:04:49.342Z,23.55
2023-01-27T15:07:19.552Z,18.88
2023-01-27T15:10:05.001Z,14.07
2023-01-27T15:12:44.290Z,18.45
2023-01-27T15:15:26.726Z,13.98
2023-01-27T15:18:00.439Z,11.63
2023-01-27T15:20:42.586Z,9.93
2023-01-27T15:23:22.842Z,10.02
2023-01-27T15:25:54.553Z,11.07
2023-01-27T15:28:25.530Z,10.52
2023-01-27T15:31:10.674Z,7.68
2023-01-27T15:33:51.533Z,4.97
2023-01-27T15:36:21.122Z,5.13
2023-01-27T15:39:04.281Z,5.38
2023-01-27T15:41:33.948Z,6.27
2023-01-27T15:44:16.740Z,6.07
2023-01-27T15:46:48.438Z,6.63
2023-01-27T15:49:19.508Z,9.88
2023-01-27T15:51:47.885Z,12.18
2023-01-27T15:54:18.289Z,11.95
2023-01-27T15:56:50.442Z,7.55
2023-01-27T15:59:23.835Z,8.20
2023-01-27T16:02:05.431Z,11.98
2023-01-27T16:04:34.102Z,9.23
2023-01-27T16:07:06.167Z,13.23
2023-01-27T16:09:39.430Z,18.92
2023-01-27T16:12:26.973Z,15.60
2023-01-27T16:15:10.635Z,16.52
2023-01-27T16:17:57.157Z,26.80
2023-01-27T16:20:27.429Z,36.45
2023-01-27T16:23:01.987Z,13.45
2023-01-27T16:25:33.449Z,18.50
2023-01-27T16:28:04.210Z,15.75
2023-01-27T16:30:33.895Z,11.75
2023-01-27T16:33:06.336Z,13.73
2023-01-27T16:35:42.593Z,16.83
2023-01-27T16:38:19.903Z,11.98
2023-01-27T16:40:52.690Z,8.07
2023-01-27T16:43:35.994Z,6.65
2023-01-27T16:46:39.721Z,6.78
2023-01-27T16:49:21.643Z,7.13
2023-01-27T16:51:56.422Z,5.90
2023-01-27T16:54:32.016Z,7.20
2023-01-27T16:57:00.429Z,6.97
2023-01-27T16:59:30.146Z,8.60
2023-01-27T17:02:03.924Z,6.57
2023-01-27T17:07:07.345Z,6.93
2023-01-27T17:09:41.694Z,8.75
2023-01-27T17:12:27.110Z,6.30
2023-01-27T17:14:58.870Z,7.70
2023-01-27T17:17:28.180Z,9.05
2023-01-27T17:20:02.222Z,10.70
2023-01-27T17:22:46.594Z,4.72
2023-01-27T17:25:28.047Z,6.57
2023-01-27T17:38:47.986Z,7.82
2023-01-27T17:41:26.130Z,9.30
2023-01-27T17:44:01.361Z,9.30
2023-01-27T17:46:32.546Z,14.82
2023-01-27T17:49:08.715Z,17.67
2023-01-27T17:51:46.455Z,19.75
2023-01-27T17:54:30.129Z,15.60
2023-01-27T17:57:07.333Z,11.40
2023-01-27T17:59:38.714Z,12.25
2023-01-27T18:02:18.899Z,14.05
2023-01-27T18:04:52.004Z,15.55
2023-01-27T18:07:23.285Z,16.25
2023-01-27T18:10:17.266Z,13.00
2023-01-27T18:12:55.061Z,14.25
2023-01-27T18:15:44.098Z,7.50
2023-01-27T18:18:23.400Z,6.28
2023-01-27T18:21:07.737Z,5.70
2023-01-27T18:23:44.375Z,6.47
2023-01-27T18:26:18.400Z,5.75
2023-01-27T18:28:47.584Z,13.45
2023-01-27T18:31:32.900Z,8.82
2023-01-27T18:34:02.296Z,7.95
2023-01-27T18:36:36.419Z,9.70
2023-01-27T18:39:05.421Z,9.88
2023-01-27T18:41:38.325Z,8.00
2023-01-27T18:44:12.204Z,5.93
2023-01-27T18:46:40.587Z,5.97
2023-01-27T18:49:11.738Z,8.32
2023-01-27T18:51:40.035Z,8.90
2023-01-27T18:54:10.550Z,9.20
2023-01-27T18:56:40.138Z,5.78
2023-01-27T18:59:13.398Z,5.25
2023-01-27T19:01:42.059Z,5.05
2023-01-27T19:04:13.010Z,6.03
2023-01-27T19:06:41.337Z,4.15
2023-01-27T19:09:10.893Z,5.97
2023-01-27T19:11:40.594Z,6.30
2023-01-27T19:14:12.406Z,6.63
2023-01-27T19:16:40.773Z,5.10
2023-01-27T19:19:12.096Z,6.47
2023-01-27T19:21:40.392Z,5.30
2023-01-27T19:24:11.419Z,4.63
2023-01-27T19:26:41.146Z,6.35
2023-01-27T19:29:12.838Z,5.47
2023-01-27T19:31:41.170Z,5.82
2023-01-27T19:34:12.108Z,5.32
2023-01-27T19:36:43.513Z,6.38
2023-01-27T19:39:14.268Z,7.18
2023-01-27T19:41:45.574Z,5.68
2023-01-27T19:44:14.396Z,6.93
2023-01-27T19:46:57.827Z,13.68
2023-01-27T19:49:26.205Z,26.15
2023-01-27T19:51:57.993Z,34.67
2023-01-27T19:54:28.782Z,19.48
2023-01-27T19:57:03.896Z,28.25
2023-01-27T19:59:32.199Z,25.60
2023-01-27T20:02:17.850Z,19.83
2023-01-27T20:04:46.329Z,15.68
2023-01-27T20:07:18.850Z,11.55
2023-01-27T20:09:47.149Z,12.35
2023-01-27T20:12:20.191Z,12.30
2023-01-27T20:14:53.033Z,12.77
2023-01-27T20:17:25.584Z,9.38
2023-01-27T20:20:02.695Z,9.10
2023-01-27T20:22:30.976Z,6.20
2023-01-27T20:24:59.352Z,7.03
2023-01-27T20:27:29.133Z,6.82
2023-01-27T20:30:02.513Z,6.45
2023-01-27T20:32:30.770Z,7.00
2023-01-27T20:35:07.733Z,7.55
2023-01-27T20:37:36.146Z,8.65
2023-01-27T20:40:09.293Z,10.00
2023-01-27T20:42:39.991Z,10.48
2023-01-27T20:45:18.843Z,10.10
2023-01-27T20:47:52.742Z,6.68
2023-01-27T20:50:26.049Z,7.85
2023-01-27T20:53:05.568Z,5.70
2023-01-27T20:55:35.153Z,6.63
2023-01-27T20:58:10.014Z,5.55
2023-01-27T21:00:44.125Z,4.93
2023-01-27T21:03:17.029Z,7.70
2023-01-27T21:05:50.098Z,6.70
2023-01-27T21:08:21.129Z,9.32
2023-01-27T21:10:55.310Z,7.85
2023-01-27T21:13:25.050Z,7.07
2023-01-27T21:16:01.806Z,7.25
2023-01-27T21:18:35.173Z,6.80
2023-01-27T21:21:07.062Z,7.65
2023-01-27T21:23:35.942Z,7.97
2023-01-27T21:26:05.493Z,8.38
2023-01-27T21:28:38.811Z,8.15
2023-01-27T21:31:07.960Z,8.50
2023-01-27T21:33:37.015Z,8.95
2023-01-27T21:36:05.499Z,7.70
2023-01-27T21:38:33.808Z,7.88
2023-01-27T21:41:08.197Z,9.15
2023-01-27T21:43:55.819Z,5.75
2023-01-27T21:46:24.463Z,6.97
2023-01-27T21:48:53.172Z,7.88
2023-01-27T21:51:21.512Z,6.93
2023-01-27T21:53:50.228Z,6.32
2023-01-27T21:56:18.823Z,7.38
2023-01-27T21:58:48.459Z,6.63
2023-01-27T22:01:16.878Z,7.88
2023-01-27T22:03:45.452Z,8.65
2023-01-27T22:06:15.457Z,7.80
2023-01-27T22:08:43.811Z,6.20
2023-01-27T22:11:12.659Z,7.80
2023-01-27T22:16:33.159Z,6.22
2023-01-27T22:19:01.556Z,5.60
2023-01-27T22:21:29.875Z,6.63
2023-01-27T22:23:58.172Z,5.00
2023-01-27T22:26:26.901Z,7.30
2023-01-27T22:28:55.290Z,5.90
2023-01-27T22:31:25.538Z,6.32
2023-01-27T22:34:09.664Z,5.78
2023-01-27T22:39:12.532Z,9.40
2023-01-27T22:44:55.180Z,8.35
2023-01-27T22:47:23.516Z,6.80
2023-01-27T22:50:01.793Z,7.47
2023-01-27T22:55:56.374Z,10.77
2023-01-27T22:58:24.937Z,13.77
2023-01-27T23:00:53.749Z,17.38
2023-01-27T23:03:23.163Z,15.07
2023-01-27T23:05:56.316Z,11.73
2023-01-27T23:08:24.946Z,9.73
2023-01-27T23:11:10.432Z,8.13
2023-01-27T23:13:41.362Z,9.85
2023-01-27T23:16:13.894Z,7.30
2023-01-27T23:18:44.352Z,7.97
2023-01-27T23:21:14.297Z,9.15
2023-01-27T23:23:42.823Z,8.65
2023-01-27T23:26:11.442Z,7.82
2023-01-27T23:28:41.039Z,7.70
2023-01-27T23:31:10.667Z,6.55
2023-01-27T23:33:40.164Z,7.93
2023-01-27T23:36:09.129Z,9.60
2023-01-27T23:38:39.127Z,8.43
2023-01-27T23:41:08.398Z,6.25
2023-01-27T23:43:36.845Z,6.90
2023-01-27T23:46:05.346Z,5.40
2023-01-27T23:48:33.675Z,7.30
2023-01-27T23:51:07.028Z,4.68
2023-01-27T23:53:35.343Z,4.50
2023-01-27T23:56:05.220Z,4.97
2023-01-27T23:58:33.708Z,4.75
